Wilsons, Virginia
Current Conditions -  °F | °C
As of 3:55 PM on Thursday 18 Dec 2014 (Local Time) from KBKT Reporting Station
Scattered Clouds Scattered Clouds  
Wind Chill: 46°   Ceiling: Unl
Heat Index: 46°   Visibility: 10mi
Dew Point: 22°   Wind: 3mph
Humidity: 37%   Direction: 320°NW
Pressure: 30.07"   Gusts: NA
Location:  37.14°N, 77.87°W
Report Text: KBKT 182055Z AUTO 32003KT 10SM SCT120 08/M06 A3007 RMK AO1 T00801058
Loading
Personal Weather Stations






























Interactive Weather Map New forecast layout! Learn more

10-Day Weather Forecast

Advertisements
Track Severe Weather on mobile